createdAt,value
2022-07-25T00:01:12.357Z,98139.13
2022-07-25T00:03:39.281Z,98134.72
2022-07-25T00:06:06.957Z,98133.13
2022-07-25T00:08:40.151Z,98131.88
2022-07-25T00:11:06.704Z,98131.69
2022-07-25T00:13:33.361Z,98121.94
2022-07-25T00:15:59.957Z,98117.06
2022-07-25T00:18:26.634Z,98113.25
2022-07-25T00:20:53.322Z,98117.56
2022-07-25T00:23:20.094Z,98116.69
2022-07-25T00:25:46.747Z,98116.97
2022-07-25T00:28:13.476Z,98111.78
2022-07-25T00:30:40.289Z,98108.47
2022-07-25T00:33:06.990Z,98106.28
2022-07-25T00:35:33.630Z,98112.53
2022-07-25T00:38:00.158Z,98112.53
2022-07-25T00:40:26.946Z,98109.84
2022-07-25T00:42:53.613Z,98110.09
2022-07-25T00:45:20.233Z,98110.72
2022-07-25T00:47:46.793Z,98108.38
2022-07-25T00:50:13.340Z,98106.78
2022-07-25T00:52:39.976Z,98102.50
2022-07-25T00:55:07.716Z,98101.13
2022-07-25T00:57:34.377Z,98100.53
2022-07-25T01:00:00.982Z,98095.28
2022-07-25T01:02:27.713Z,98088.16
2022-07-25T01:04:54.958Z,98085.69
2022-07-25T01:07:21.784Z,98090.31
2022-07-25T01:09:48.839Z,98088.34
2022-07-25T01:12:15.548Z,98083.81
2022-07-25T01:14:42.136Z,98085.41
2022-07-25T01:17:08.876Z,98083.56
2022-07-25T01:19:35.518Z,98075.09
2022-07-25T01:22:02.060Z,98082.44
2022-07-25T01:24:29.155Z,98083.44
2022-07-25T01:26:55.796Z,98077.28
2022-07-25T01:29:22.458Z,98074.75
2022-07-25T01:31:49.050Z,98071.91
2022-07-25T01:34:15.659Z,98066.00
2022-07-25T01:36:42.572Z,98060.75
2022-07-25T01:39:09.208Z,98062.69
2022-07-25T01:41:35.964Z,98065.53
2022-07-25T01:44:02.749Z,98064.75
2022-07-25T01:46:29.664Z,98063.31
2022-07-25T01:48:56.475Z,98071.41
2022-07-25T01:51:23.082Z,98059.75
2022-07-25T01:53:53.219Z,98059.25
2022-07-25T01:56:22.402Z,98054.72
2022-07-25T01:58:49.210Z,98061.31
2022-07-25T02:01:15.857Z,98059.97
2022-07-25T02:03:42.448Z,98067.44
2022-07-25T02:06:09.027Z,98054.41
2022-07-25T02:08:35.615Z,98057.47
2022-07-25T02:11:02.663Z,98055.50
2022-07-25T02:13:29.322Z,98058.09
2022-07-25T02:15:55.889Z,98055.84
2022-07-25T02:18:22.459Z,98049.72
2022-07-25T02:20:49.104Z,98044.69
2022-07-25T02:23:15.669Z,98051.19
2022-07-25T02:25:42.296Z,98051.66
2022-07-25T02:28:10.672Z,98049.94
2022-07-25T02:30:37.628Z,98044.25
2022-07-25T02:33:04.331Z,98034.69
2022-07-25T02:35:30.955Z,98041.25
2022-07-25T02:37:57.726Z,98036.34
2022-07-25T02:40:24.285Z,98035.06
2022-07-25T02:42:50.851Z,98030.75
2022-07-25T02:45:17.950Z,98032.38
2022-07-25T02:47:44.745Z,98031.53
2022-07-25T02:50:14.808Z,98028.16
2022-07-25T02:52:42.342Z,98033.06
2022-07-25T02:55:10.040Z,98026.19
2022-07-25T02:57:36.656Z,98021.47
2022-07-25T03:00:05.065Z,98014.31
2022-07-25T03:02:31.606Z,98010.13
2022-07-25T03:04:58.205Z,98014.53
2022-07-25T03:07:24.802Z,98011.34
2022-07-25T03:09:51.477Z,98016.81
2022-07-25T03:12:18.083Z,98002.50
2022-07-25T03:14:44.663Z,98005.88
2022-07-25T03:17:11.269Z,98000.59
2022-07-25T03:19:37.876Z,97996.31
2022-07-25T03:22:04.453Z,98004.84
2022-07-25T03:24:31.475Z,98001.63
2022-07-25T03:26:58.120Z,98003.63
2022-07-25T03:29:24.764Z,98001.63
2022-07-25T03:31:51.432Z,97998.72
2022-07-25T03:34:18.123Z,97998.53
2022-07-25T03:36:44.696Z,97994.13
2022-07-25T03:39:11.297Z,97999.38
2022-07-25T03:41:37.851Z,97993.03
2022-07-25T03:44:04.872Z,97992.50
2022-07-25T03:46:31.659Z,97998.72
2022-07-25T03:48:58.345Z,97991.06
2022-07-25T03:51:24.991Z,97995.56
2022-07-25T03:54:03.847Z,97997.63
2022-07-25T03:56:40.328Z,97988.81
2022-07-25T03:59:13.470Z,97987.31
2022-07-25T04:01:40.704Z,97994.44
2022-07-25T04:04:07.963Z,97983.66
2022-07-25T04:06:34.903Z,97984.88
2022-07-25T04:09:02.107Z,97985.91
2022-07-25T04:11:30.772Z,97985.81
2022-07-25T04:13:58.317Z,97969.91
2022-07-25T04:16:25.365Z,97977.44
2022-07-25T04:18:55.446Z,97973.03
2022-07-25T04:21:23.672Z,97964.53
2022-07-25T04:23:51.004Z,97969.34
2022-07-25T04:26:18.148Z,97966.78
2022-07-25T04:28:44.741Z,97967.00
2022-07-25T04:31:11.457Z,97955.59
2022-07-25T04:33:38.730Z,97964.22
2022-07-25T04:36:06.396Z,97954.50
2022-07-25T04:38:33.597Z,97957.50
2022-07-25T04:41:00.308Z,97953.28
2022-07-25T04:43:26.899Z,97965.91
2022-07-25T04:45:53.909Z,97971.38
2022-07-25T04:48:20.523Z,97963.53
2022-07-25T04:50:47.150Z,97962.19
2022-07-25T04:53:13.749Z,97960.91
2022-07-25T04:55:40.754Z,97956.38
2022-07-25T04:58:07.326Z,97961.13
2022-07-25T05:00:34.104Z,97950.75
2022-07-25T05:03:00.754Z,97955.66
2022-07-25T05:05:27.469Z,97962.28
2022-07-25T05:07:58.870Z,97966.56
2022-07-25T05:10:26.906Z,97959.72
2022-07-25T05:12:54.192Z,97960.09
2022-07-25T05:15:21.207Z,97965.16
2022-07-25T05:17:48.332Z,97962.50
2022-07-25T05:20:14.932Z,97956.88
2022-07-25T05:22:42.406Z,97958.75
2022-07-25T05:25:12.281Z,97940.63
2022-07-25T05:27:39.770Z,97942.94
2022-07-25T05:30:08.316Z,97939.22
2022-07-25T05:32:34.996Z,97936.25
2022-07-25T05:35:01.583Z,97929.22
2022-07-25T05:37:28.170Z,97937.59
2022-07-25T05:39:54.800Z,97932.41
2022-07-25T05:42:21.447Z,97921.09
2022-07-25T05:44:48.286Z,97924.16
2022-07-25T05:47:14.923Z,97917.88
2022-07-25T05:49:41.510Z,97911.22
2022-07-25T05:52:12.564Z,97916.44
2022-07-25T05:54:39.946Z,97914.59
2022-07-25T05:57:06.466Z,97916.75
2022-07-25T05:59:33.112Z,97912.78
2022-07-25T06:02:01.909Z,97911.59
2022-07-25T06:04:28.900Z,97906.03
2022-07-25T06:06:55.735Z,97903.16
2022-07-25T06:09:23.171Z,97906.59
2022-07-25T06:11:59.777Z,97906.09
2022-07-25T06:14:27.398Z,97906.31
2022-07-25T06:16:55.136Z,97914.94
2022-07-25T06:19:21.920Z,97908.00
2022-07-25T06:21:48.540Z,97900.53
2022-07-25T06:24:15.261Z,97902.13
2022-07-25T06:26:41.886Z,97886.25
2022-07-25T06:29:08.591Z,97890.00
2022-07-25T06:31:35.261Z,97891.66
2022-07-25T06:34:01.854Z,97889.81
2022-07-25T06:36:32.567Z,97892.03
2022-07-25T06:39:00.018Z,97895.16
2022-07-25T06:41:26.918Z,97891.91
2022-07-25T06:43:53.480Z,97892.72
2022-07-25T06:46:20.386Z,97884.06
2022-07-25T06:48:47.026Z,97895.81
2022-07-25T06:51:13.740Z,97884.06
2022-07-25T06:53:40.366Z,97887.56
2022-07-25T06:56:07.143Z,97887.75
2022-07-25T06:58:33.980Z,97891.81
2022-07-25T07:01:01.382Z,97892.31
2022-07-25T07:03:28.361Z,97890.88
2022-07-25T07:05:55.365Z,97882.38
2022-07-25T07:08:22.163Z,97882.75
2022-07-25T07:10:48.749Z,97882.75
2022-07-25T07:13:23.964Z,97880.75
2022-07-25T07:15:51.692Z,97881.56
2022-07-25T07:18:19.798Z,97884.34
2022-07-25T07:20:47.280Z,97868.88
2022-07-25T07:23:16.575Z,97881.13
2022-07-25T07:25:45.743Z,97872.25
2022-07-25T07:28:12.934Z,97880.69
2022-07-25T07:31:13.360Z,97877.31
2022-07-25T07:33:26.162Z,97880.66
2022-07-25T07:35:55.863Z,97864.34
2022-07-25T07:38:24.138Z,97861.75
2022-07-25T07:40:50.687Z,97866.78
2022-07-25T07:43:17.267Z,97875.13
2022-07-25T07:45:43.954Z,97868.50
2022-07-25T07:48:10.733Z,97871.47
2022-07-25T07:50:37.789Z,97867.44
2022-07-25T07:53:04.598Z,97870.13
2022-07-25T07:55:48.507Z,97859.09
2022-07-25T07:58:18.822Z,97861.66
2022-07-25T08:00:47.655Z,97858.63
2022-07-25T08:03:18.477Z,97858.78
2022-07-25T08:05:48.425Z,97857.44
2022-07-25T08:08:15.324Z,97847.75
2022-07-25T08:10:43.843Z,97860.00
2022-07-25T08:13:19.520Z,97860.94
2022-07-25T08:15:48.505Z,97855.38
2022-07-25T08:18:17.376Z,97858.09
2022-07-25T08:20:45.720Z,97868.28
2022-07-25T08:23:12.858Z,97866.31
2022-07-25T08:25:40.033Z,97869.91
2022-07-25T08:28:07.386Z,97859.69
2022-07-25T08:30:35.751Z,97854.09
2022-07-25T08:33:04.687Z,97847.63
2022-07-25T08:35:32.624Z,97841.56
2022-07-25T08:38:00.945Z,97843.97
2022-07-25T08:40:29.658Z,97838.94
2022-07-25T08:42:56.703Z,97835.88
2022-07-25T08:45:23.460Z,97823.88
2022-07-25T08:47:51.826Z,97824.03
2022-07-25T08:50:38.678Z,97830.25
2022-07-25T08:53:31.646Z,97830.28
2022-07-25T08:55:53.002Z,97817.09
2022-07-25T08:58:19.673Z,97825.59
2022-07-25T09:00:46.791Z,97814.47
2022-07-25T09:03:13.685Z,97831.69
2022-07-25T09:05:40.886Z,97825.59
2022-07-25T09:08:17.429Z,97834.56
2022-07-25T09:10:50.066Z,97836.22
2022-07-25T09:13:17.883Z,97822.66
2022-07-25T09:15:51.377Z,97824.72
2022-07-25T09:18:23.619Z,97818.97
2022-07-25T09:21:01.564Z,97824.72
2022-07-25T09:23:33.580Z,97839.81
2022-07-25T09:26:04.022Z,97832.41
2022-07-25T09:28:30.843Z,97823.69
2022-07-25T09:30:59.903Z,97833.06
2022-07-25T09:33:28.331Z,97826.00
2022-07-25T09:35:56.020Z,97818.47
2022-07-25T09:38:24.104Z,97824.72
2022-07-25T09:40:58.568Z,97834.72
2022-07-25T09:43:38.838Z,97846.47
2022-07-25T09:46:07.009Z,97847.22
2022-07-25T09:48:35.378Z,97837.22
2022-07-25T09:51:03.026Z,97838.09
2022-07-25T09:53:29.863Z,97851.97
2022-07-25T09:55:57.537Z,97849.47
2022-07-25T09:58:25.250Z,97842.72
2022-07-25T10:00:56.340Z,97842.72
2022-07-25T10:03:51.468Z,97837.84
2022-07-25T10:06:28.797Z,97839.41
2022-07-25T10:08:55.720Z,97819.25
2022-07-25T10:11:27.825Z,97823.44
2022-07-25T10:13:55.391Z,97812.72
2022-07-25T10:16:24.357Z,97812.78
2022-07-25T10:18:57.127Z,97809.84
2022-07-25T10:21:27.666Z,97802.28
2022-07-25T10:24:07.904Z,97804.41
2022-07-25T10:26:40.089Z,97805.81
2022-07-25T10:29:11.339Z,97811.94
2022-07-25T10:31:49.342Z,97808.56
2022-07-25T10:34:16.773Z,97817.28
2022-07-25T10:36:48.333Z,97827.94
2022-07-25T10:39:17.191Z,97816.94
2022-07-25T10:41:55.756Z,97828.19
2022-07-25T10:44:22.531Z,97823.03
2022-07-25T10:46:50.286Z,97826.25
2022-07-25T10:49:31.014Z,97838.63
2022-07-25T10:52:00.736Z,97834.19
2022-07-25T10:54:36.991Z,97842.47
2022-07-25T10:57:05.956Z,97847.06
2022-07-25T10:59:39.850Z,97849.69
2022-07-25T11:02:09.626Z,97845.28
2022-07-25T11:04:36.629Z,97848.22
2022-07-25T11:07:14.461Z,97832.66
2022-07-25T11:09:43.946Z,97825.53
2022-07-25T11:12:15.526Z,97819.97
2022-07-25T11:14:42.793Z,97822.94
2022-07-25T11:17:15.785Z,97842.66
2022-07-25T11:19:44.915Z,97835.09
2022-07-25T11:22:12.250Z,97834.44
2022-07-25T11:24:43.272Z,97832.13
2022-07-25T11:27:12.553Z,97836.38
2022-07-25T11:29:40.262Z,97836.41
2022-07-25T11:32:10.474Z,97826.88
2022-07-25T11:34:44.020Z,97826.28
2022-07-25T11:37:12.489Z,97815.88
2022-07-25T11:39:41.194Z,97814.25
2022-07-25T11:42:10.665Z,97815.84
2022-07-25T11:44:47.648Z,97848.19
2022-07-25T11:47:32.281Z,97850.53
2022-07-25T11:50:02.532Z,97852.47
2022-07-25T11:52:32.013Z,97844.34
2022-07-25T11:55:03.730Z,97836.50
2022-07-25T11:57:32.625Z,97832.94
2022-07-25T12:00:00.621Z,97835.09
2022-07-25T12:02:33.346Z,97835.63
2022-07-25T12:05:06.671Z,97829.50
2022-07-25T12:07:45.240Z,97822.84
2022-07-25T12:10:35.073Z,97823.34
2022-07-25T12:13:04.005Z,97817.44
2022-07-25T12:15:33.335Z,97818.50
2022-07-25T12:18:01.873Z,97827.53
2022-07-25T12:20:31.440Z,97819.47
2022-07-25T12:23:08.939Z,97822.84
2022-07-25T12:25:40.755Z,97819.13
2022-07-25T12:28:08.668Z,97812.69
2022-07-25T12:30:35.305Z,97813.22
2022-07-25T12:33:02.275Z,97814.25
2022-07-25T12:35:29.245Z,97820.50
2022-07-25T12:37:55.936Z,97830.31
2022-07-25T12:40:22.752Z,97847.97
2022-07-25T12:42:49.873Z,97835.56
2022-07-25T12:45:17.765Z,97846.13
2022-07-25T12:47:46.046Z,97843.91
2022-07-25T12:50:13.699Z,97848.88
2022-07-25T12:52:41.296Z,97859.69
2022-07-25T12:55:10.053Z,97857.28
2022-07-25T12:57:37.312Z,97858.25
2022-07-25T13:00:10.012Z,97855.81
2022-07-25T13:02:37.212Z,97858.41
2022-07-25T13:05:04.626Z,97856.72
2022-07-25T13:07:32.255Z,97859.25
2022-07-25T13:09:58.887Z,97867.47
2022-07-25T13:12:25.442Z,97867.19
2022-07-25T13:14:52.293Z,97864.16
2022-07-25T13:17:21.381Z,97871.63
2022-07-25T13:19:51.909Z,97884.16
2022-07-25T13:22:18.511Z,97877.44
2022-07-25T13:24:45.080Z,97875.06
2022-07-25T13:27:11.725Z,97880.13
2022-07-25T13:29:38.345Z,97877.75
2022-07-25T13:32:05.419Z,97882.50
2022-07-25T13:34:32.778Z,97877.16
2022-07-25T13:36:59.605Z,97892.41
2022-07-25T13:39:27.119Z,97895.06
2022-07-25T13:41:53.797Z,97898.97
2022-07-25T13:44:20.292Z,97900.94
2022-07-25T13:46:49.930Z,97908.78
2022-07-25T13:49:17.522Z,97914.16
2022-07-25T13:51:45.531Z,97905.38
2022-07-25T13:54:12.764Z,97916.75
2022-07-25T13:56:40.524Z,97924.56
2022-07-25T13:59:08.583Z,97929.75
2022-07-25T14:01:35.773Z,97920.13
2022-07-25T14:04:02.469Z,97931.75
2022-07-25T14:06:29.102Z,97933.63
2022-07-25T14:08:55.638Z,97931.84
2022-07-25T14:11:24.874Z,97949.34
2022-07-25T14:13:55.993Z,97946.06
2022-07-25T14:16:22.579Z,97943.34
2022-07-25T14:18:49.262Z,97936.59
2022-07-25T14:21:16.272Z,97928.59
2022-07-25T14:23:42.950Z,97934.75
2022-07-25T14:26:09.601Z,97940.88
2022-07-25T14:28:36.207Z,97944.06
2022-07-25T14:31:02.853Z,97947.03
2022-07-25T14:33:29.408Z,97930.25
2022-07-25T14:35:56.370Z,97946.31
2022-07-25T14:38:22.993Z,97951.47
2022-07-25T14:40:49.704Z,97953.09
2022-07-25T14:43:16.345Z,97964.00
2022-07-25T14:45:43.058Z,97957.25
2022-07-25T14:48:09.642Z,97966.13
2022-07-25T14:50:36.236Z,97970.19
2022-07-25T14:53:02.780Z,97959.66
2022-07-25T14:55:29.366Z,97975.31
2022-07-25T14:57:57.815Z,97966.81
2022-07-25T15:00:29.169Z,97975.72
2022-07-25T15:02:56.814Z,97984.28
2022-07-25T15:05:23.340Z,97985.28
2022-07-25T15:07:49.955Z,97983.94
2022-07-25T15:10:17.166Z,97986.09
2022-07-25T15:12:43.961Z,97985.25
2022-07-25T15:15:11.426Z,97991.59
2022-07-25T15:17:38.709Z,97999.06
2022-07-25T15:20:05.888Z,97981.13
2022-07-25T15:22:32.500Z,97985.53
2022-07-25T15:25:27.555Z,97985.69
2022-07-25T15:27:45.607Z,97983.22
2022-07-25T15:30:12.859Z,97977.06
2022-07-25T15:32:40.165Z,97989.69
2022-07-25T15:35:07.395Z,97987.47
2022-07-25T15:37:34.057Z,97992.13
2022-07-25T15:40:00.741Z,97988.84
2022-07-25T15:42:29.365Z,97993.78
2022-07-25T15:45:29.821Z,97982.16
2022-07-25T15:47:46.239Z,98005.06
2022-07-25T15:50:18.065Z,98015.31
2022-07-25T15:52:44.653Z,98003.34
2022-07-25T15:55:11.265Z,98014.47
2022-07-25T15:57:37.920Z,98013.59
2022-07-25T16:00:07.512Z,98007.97
2022-07-25T16:02:34.944Z,98011.59
2022-07-25T16:05:03.099Z,98022.13
2022-07-25T16:07:29.926Z,98015.28
2022-07-25T16:09:57.141Z,98015.94
2022-07-25T16:12:28.278Z,98018.97
2022-07-25T16:14:55.831Z,98022.88
2022-07-25T16:17:23.162Z,98015.88
2022-07-25T16:19:50.013Z,98009.09
2022-07-25T16:22:16.920Z,98012.34
2022-07-25T16:24:43.662Z,98008.13
2022-07-25T16:27:10.399Z,98007.44
2022-07-25T16:29:37.610Z,98000.59
2022-07-25T16:32:05.409Z,98010.44
2022-07-25T16:34:32.787Z,98019.63
2022-07-25T16:37:01.233Z,98015.38
2022-07-25T16:39:28.075Z,98015.53
2022-07-25T16:41:54.978Z,98015.50
2022-07-25T16:44:23.699Z,98021.56
2022-07-25T16:46:50.845Z,98029.75
2022-07-25T16:49:17.684Z,98028.38
2022-07-25T16:51:45.082Z,98028.59
2022-07-25T16:54:12.338Z,98031.63
2022-07-25T16:56:39.051Z,98031.84
2022-07-25T16:59:06.528Z,98034.91
2022-07-25T17:01:35.048Z,98037.78
2022-07-25T17:04:02.049Z,98029.91
2022-07-25T17:06:28.811Z,98035.25
2022-07-25T17:08:55.629Z,98039.06
2022-07-25T17:11:22.488Z,98039.97
2022-07-25T17:13:49.058Z,98052.97
2022-07-25T17:16:15.757Z,98053.13
2022-07-25T17:18:42.429Z,98043.03
2022-07-25T17:21:09.549Z,98047.19
2022-07-25T17:23:36.256Z,98053.44
2022-07-25T17:26:05.216Z,98050.81
2022-07-25T17:28:32.126Z,98056.25
2022-07-25T17:30:58.808Z,98060.19
2022-07-25T17:33:25.440Z,98058.56
2022-07-25T17:35:52.420Z,98054.00
2022-07-25T17:38:23.737Z,98056.78
2022-07-25T17:40:52.563Z,98058.75
2022-07-25T17:43:19.637Z,98064.66
2022-07-25T17:45:46.286Z,98060.22
2022-07-25T17:48:12.867Z,98066.78
2022-07-25T17:50:39.518Z,98074.75
2022-07-25T17:53:06.084Z,98068.97
2022-07-25T17:55:38.232Z,98076.59
2022-07-25T17:58:05.576Z,98077.59
2022-07-25T18:00:32.392Z,98078.69
2022-07-25T18:02:59.357Z,98088.97
2022-07-25T18:05:26.112Z,98096.28
2022-07-25T18:07:53.533Z,98084.88
2022-07-25T18:10:21.775Z,98087.91
2022-07-25T18:12:48.745Z,98095.63
2022-07-25T18:15:15.582Z,98102.97
2022-07-25T18:17:44.209Z,98098.88
2022-07-25T18:20:12.191Z,98096.34
2022-07-25T18:22:41.079Z,98103.81
2022-07-25T18:25:11.204Z,98091.41
2022-07-25T18:27:41.314Z,98094.19
2022-07-25T18:30:08.828Z,98092.03
2022-07-25T18:32:35.795Z,98086.59
2022-07-25T18:35:02.608Z,98090.44
2022-07-25T18:37:29.221Z,98093.94
2022-07-25T18:39:55.850Z,98089.25
2022-07-25T18:42:26.323Z,98083.25
2022-07-25T18:44:56.383Z,98087.28
2022-07-25T18:47:25.509Z,98086.16
2022-07-25T18:49:53.659Z,98087.13
2022-07-25T18:52:21.567Z,98088.88
2022-07-25T18:54:48.201Z,98096.25
2022-07-25T18:57:15.343Z,98088.69
2022-07-25T18:59:42.140Z,98089.69
2022-07-25T19:02:08.951Z,98097.44
2022-07-25T19:04:35.653Z,98091.66
2022-07-25T19:07:02.497Z,98095.53
2022-07-25T19:09:29.104Z,98088.66
2022-07-25T19:11:56.597Z,98091.22
2022-07-25T19:14:26.029Z,98095.22
2022-07-25T19:16:53.801Z,98105.78
2022-07-25T19:19:20.706Z,98101.22
2022-07-25T19:21:47.507Z,98095.53
2022-07-25T19:24:14.229Z,98100.22
2022-07-25T19:26:41.420Z,98094.94
2022-07-25T19:29:09.268Z,98104.34
2022-07-25T19:31:38.106Z,98096.91
2022-07-25T19:34:06.628Z,98113.56
2022-07-25T19:36:33.622Z,98119.03
2022-07-25T19:39:00.886Z,98120.63
2022-07-25T19:41:28.384Z,98117.78
2022-07-25T19:43:55.008Z,98120.72
2022-07-25T19:46:22.133Z,98124.69
2022-07-25T19:48:50.067Z,98128.03
2022-07-25T19:51:16.788Z,98129.19
2022-07-25T19:53:43.379Z,98130.53
2022-07-25T19:56:09.938Z,98128.75
2022-07-25T19:58:38.971Z,98132.75
2022-07-25T20:01:07.954Z,98138.59
2022-07-25T20:03:35.067Z,98144.00
2022-07-25T20:06:07.520Z,98147.59
2022-07-25T20:08:34.612Z,98144.34
2022-07-25T20:11:01.343Z,98146.47
2022-07-25T20:13:29.573Z,98151.00
2022-07-25T20:15:56.519Z,98145.78
2022-07-25T20:18:23.150Z,98150.63
2022-07-25T20:20:49.756Z,98152.19
2022-07-25T20:23:16.439Z,98150.78
2022-07-25T20:25:43.036Z,98153.56
2022-07-25T20:28:09.775Z,98159.81
2022-07-25T20:30:36.616Z,98168.50
2022-07-25T20:33:05.347Z,98169.66
2022-07-25T20:35:36.149Z,98170.47
2022-07-25T20:38:02.842Z,98180.06
2022-07-25T20:40:36.196Z,98176.97
2022-07-25T20:43:04.380Z,98187.13
2022-07-25T20:45:30.990Z,98187.69
2022-07-25T20:47:57.715Z,98194.41
2022-07-25T20:50:24.397Z,98195.66
2022-07-25T20:52:51.281Z,98204.44
2022-07-25T20:55:17.854Z,98207.25
2022-07-25T20:57:50.138Z,98211.50
2022-07-25T21:00:17.198Z,98210.75
2022-07-25T21:02:43.850Z,98213.75
2022-07-25T21:05:10.635Z,98210.03
2022-07-25T21:07:37.251Z,98210.63
2022-07-25T21:10:04.594Z,98203.25
2022-07-25T21:12:33.041Z,98220.78
2022-07-25T21:15:01.248Z,98211.56
2022-07-25T21:17:28.309Z,98213.34
2022-07-25T21:19:55.026Z,98216.44
2022-07-25T21:22:22.146Z,98214.22
2022-07-25T21:24:49.628Z,98213.47
2022-07-25T21:27:17.319Z,98217.69
2022-07-25T21:29:44.498Z,98222.41
2022-07-25T21:32:13.533Z,98219.88
2022-07-25T21:34:41.009Z,98219.63
2022-07-25T21:37:07.656Z,98236.91
2022-07-25T21:39:34.248Z,98237.88
2022-07-25T21:42:01.858Z,98234.69
2022-07-25T21:44:28.560Z,98242.31
2022-07-25T21:46:55.114Z,98239.88
2022-07-25T21:49:42.030Z,98237.28
2022-07-25T21:52:13.686Z,98231.50
2022-07-25T21:54:44.939Z,98239.66
2022-07-25T21:57:13.693Z,98241.66
2022-07-25T21:59:44.572Z,98235.63
2022-07-25T22:02:11.710Z,98237.00
2022-07-25T22:04:38.657Z,98246.63
2022-07-25T22:07:05.968Z,98242.94
2022-07-25T22:09:32.598Z,98252.53
2022-07-25T22:11:59.337Z,98253.06
2022-07-25T22:14:26.000Z,98245.19
2022-07-25T22:16:53.044Z,98250.22
2022-07-25T22:19:22.356Z,98259.19
2022-07-25T22:21:51.894Z,98260.34
2022-07-25T22:24:18.478Z,98264.28
2022-07-25T22:26:45.547Z,98268.59
2022-07-25T22:29:12.495Z,98266.50
2022-07-25T22:31:39.457Z,98272.88
2022-07-25T22:34:06.647Z,98274.22
2022-07-25T22:36:33.206Z,98276.19
2022-07-25T22:38:59.821Z,98279.00
2022-07-25T22:41:26.430Z,98282.22
2022-07-25T22:43:58.756Z,98278.91
2022-07-25T22:46:28.250Z,98269.78
2022-07-25T22:48:55.453Z,98275.41
2022-07-25T22:51:23.078Z,98283.25
2022-07-25T22:53:49.665Z,98284.19
2022-07-25T22:56:16.884Z,98286.91
2022-07-25T22:58:43.730Z,98288.13
2022-07-25T23:01:12.597Z,98283.25
2022-07-25T23:03:39.219Z,98287.63
2022-07-25T23:06:06.547Z,98288.16
2022-07-25T23:08:33.337Z,98290.63
2022-07-25T23:11:00.053Z,98290.78
2022-07-25T23:13:26.581Z,98295.88
2022-07-25T23:15:53.161Z,98308.50
2022-07-25T23:18:19.831Z,98300.66
2022-07-25T23:20:46.433Z,98302.47
2022-07-25T23:23:13.615Z,98300.16
2022-07-25T23:25:40.405Z,98303.88
2022-07-25T23:28:06.912Z,98307.13
2022-07-25T23:30:39.710Z,98312.63
2022-07-25T23:33:07.477Z,98313.03
2022-07-25T23:35:34.715Z,98305.63
2022-07-25T23:38:01.382Z,98314.38
2022-07-25T23:40:28.091Z,98312.91
2022-07-25T23:42:54.971Z,98312.56
2022-07-25T23:45:24.924Z,98309.56
2022-07-25T23:47:54.767Z,98313.06
2022-07-25T23:50:22.541Z,98311.94
2022-07-25T23:52:49.200Z,98321.81
2022-07-25T23:55:15.733Z,98324.03
2022-07-25T23:57:43.057Z,98319.81
